Terminal Aerodrome Forecast
Issued by NWS Omaha/Valley, NE

Home | Current Version | Previous Version | Graphics & Text | Print | Product List | Glossary On
Versions: 1 2 3 4 5 6 7 8 9 10 11 12 13 14 15 16 17 18
000
FTUS43 KOAX 142102 AAA
TAFOFK
TAF AMD
KOFK 142102Z 1421/1518 31013KT 3SM BR OVC007
     FM142200 33018G22KT P6SM VCSH OVC010
     FM150000 33024G32KT P6SM BKN015
     FM150700 32016G24KT P6SM FEW100
     FM151100 31009KT P6SM SKC=

USA.gov is the U.S. government's official web portal to all federal, state and local government web resources and services.